Time;durP1;ratioP1;P1;durP2;ratioP2;P2;SDS_P1;SDS_P2;PMS_P1;PMS_P2;Temp;Humidity;BMP_temperature;BMP_pressure;BME280_temperature;BME280_humidity;BME280_pressure;Samples;Min_cycle;Max_cycle;Signal;HPM_P1;HPM_P2
2021/09/22 00:00:19;;;;;;;10.43;9.33;;;;;;;7.19;77.25;96752.28;6152628;23;20148;-80
2021/09/22 00:02:45;;;;;;;15.53;9.87;;;;;;;7.14;77.70;96751.72;6153355;23;20151;-81
2021/09/22 00:05:11;;;;;;;12.23;9.47;;;;;;;7.08;77.93;96750.38;6128163;23;20156;-80
2021/09/22 00:07:36;;;;;;;10.83;9.70;;;;;;;7.08;77.82;96745.22;6129920;23;20166;-80
2021/09/22 00:10:05;;;;;;;11.07;9.60;;;;;;;7.13;77.61;96749.25;6129652;23;20248;-80
2021/09/22 00:12:31;;;;;;;11.43;8.83;;;;;;;7.07;78.18;96751.31;6154732;23;20163;-80
2021/09/22 00:14:56;;;;;;;14.77;10.27;;;;;;;7.06;78.00;96749.63;6129200;23;20173;-82
2021/09/22 00:17:21;;;;;;;13.97;10.00;;;;;;;7.05;78.19;96740.22;6129874;23;20246;-80
2021/09/22 00:19:47;;;;;;;13.77;9.10;;;;;;;7.03;78.30;96738.66;6155514;23;20535;-81
2021/09/22 00:22:12;;;;;;;10.17;9.17;;;;;;;7.02;78.61;96739.59;6129715;23;20606;-80
2021/09/22 00:24:37;;;;;;;13.80;8.83;;;;;;;7.02;78.64;96737.84;6153690;23;20247;-81
2021/09/22 00:27:03;;;;;;;11.23;10.00;;;;;;;7.03;78.04;96736.91;6130039;23;20516;-81
2021/09/22 00:29:28;;;;;;;11.97;9.80;;;;;;;7.03;78.10;96734.31;6154774;23;20193;-81
2021/09/22 00:31:53;;;;;;;11.63;9.77;;;;;;;7.03;78.62;96741.25;6130751;23;20170;-81
2021/09/22 00:34:19;;;;;;;11.47;9.93;;;;;;;7.00;78.24;96738.88;6154777;23;20182;-81
2021/09/22 00:36:45;;;;;;;11.30;9.57;;;;;;;6.98;79.13;96740.69;6154982;23;20246;-81
2021/09/22 00:39:11;;;;;;;14.27;9.83;;;;;;;6.91;78.67;96748.03;6130423;23;20549;-81
2021/09/22 00:41:36;;;;;;;10.63;9.53;;;;;;;6.89;79.12;96747.28;6155130;23;20151;-81
2021/09/22 00:44:02;;;;;;;10.93;9.83;;;;;;;6.87;78.94;96738.78;6154382;23;20156;-81
2021/09/22 00:46:27;;;;;;;11.37;9.97;;;;;;;6.83;79.20;96737.34;6155104;23;20236;-81
2021/09/22 00:48:53;;;;;;;11.73;9.80;;;;;;;6.79;79.33;96733.28;6130445;23;20160;-81
2021/09/22 00:51:19;;;;;;;13.33;10.00;;;;;;;6.74;79.88;96735.34;6155163;23;20622;-81
2021/09/22 00:53:44;;;;;;;13.17;10.87;;;;;;;6.69;80.39;96732.19;6153707;23;20179;-81
2021/09/22 00:56:10;;;;;;;14.97;10.53;;;;;;;6.69;80.42;96734.78;6155279;23;20209;-80
2021/09/22 00:58:35;;;;;;;13.17;10.20;;;;;;;6.73;79.90;96731.09;6154960;23;20577;-80
2021/09/22 01:01:01;;;;;;;12.20;9.67;;;;;;;6.72;79.57;96726.84;6156641;23;20151;-81
2021/09/22 01:03:26;;;;;;;12.00;10.30;;;;;;;6.76;79.36;96733.47;6154806;23;20489;-81
2021/09/22 01:05:53;;;;;;;13.97;10.57;;;;;;;6.79;79.35;96733.28;6154668;23;20181;-80
2021/09/22 01:08:19;;;;;;;13.23;11.23;;;;;;;6.84;79.70;96740.75;6130643;23;20159;-81
2021/09/22 01:10:45;;;;;;;11.30;10.10;;;;;;;6.85;79.94;96737.25;6130270;23;20183;-81
2021/09/22 01:13:11;;;;;;;11.80;10.47;;;;;;;6.86;79.32;96734.56;6130786;23;20163;-81
2021/09/22 01:15:38;;;;;;;12.10;10.87;;;;;;;6.87;79.55;96743.13;6154111;23;20182;-81
2021/09/22 01:18:07;;;;;;;12.73;10.53;;;;;;;6.86;79.44;96739.72;6155124;23;20156;-81
2021/09/22 01:20:32;;;;;;;11.57;10.37;;;;;;;6.86;79.66;96746.63;6130980;23;20160;-81
2021/09/22 01:23:00;;;;;;;13.90;10.80;;;;;;;6.79;80.16;96751.34;6153326;23;20293;-81
2021/09/22 01:25:25;;;;;;;15.93;10.90;;;;;;;6.78;80.18;96752.28;6129334;23;20314;-81
2021/09/22 01:27:54;;;;;;;13.57;10.80;;;;;;;6.69;80.82;96753.66;6154903;23;20152;-81
2021/09/22 01:30:20;;;;;;;14.47;10.83;;;;;;;6.62;80.88;96752.38;6154969;23;20211;-81
2021/09/22 01:32:54;;;;;;;12.03;10.77;;;;;;;6.59;81.09;96752.59;6130348;23;20155;-80
2021/09/22 01:35:20;;;;;;;14.30;10.37;;;;;;;6.57;81.20;96754.44;6154109;23;20164;-81
2021/09/22 01:37:46;;;;;;;12.77;10.97;;;;;;;6.55;81.10;96747.72;6130391;23;20167;-81
2021/09/22 01:40:11;;;;;;;14.80;11.97;;;;;;;6.54;81.13;96749.47;6155500;23;20586;-81
2021/09/22 01:42:37;;;;;;;14.67;11.43;;;;;;;6.56;81.38;96742.44;6130286;23;20159;-81
2021/09/22 01:45:10;;;;;;;13.83;11.20;;;;;;;6.53;81.34;96747.78;6130046;23;20164;-81
2021/09/22 01:47:35;;;;;;;12.07;10.77;;;;;;;6.48;81.25;96745.50;6155151;23;20214;-81
2021/09/22 01:50:08;;;;;;;13.87;10.83;;;;;;;6.44;81.39;96749.16;6130434;23;20641;-81
2021/09/22 01:52:33;;;;;;;14.10;11.07;;;;;;;6.39;81.93;96753.78;6130810;23;20632;-81
2021/09/22 01:54:59;;;;;;;13.73;11.37;;;;;;;6.37;82.04;96753.06;6140591;23;20183;-80
2021/09/22 01:57:24;;;;;;;14.33;11.57;;;;;;;6.33;82.44;96746.41;6168560;23;20167;-80
2021/09/22 01:59:50;;;;;;;14.77;12.00;;;;;;;6.32;82.15;96752.50;6171160;23;20155;-81
2021/09/22 02:02:16;;;;;;;13.33;11.40;;;;;;;6.34;82.07;96754.97;6168026;23;20151;-80
2021/09/22 02:04:41;;;;;;;15.50;11.83;;;;;;;6.32;82.10;96747.34;6168253;23;20182;-79
2021/09/22 02:07:06;;;;;;;13.97;11.37;;;;;;;6.30;82.18;96746.59;6166819;23;20187;-80
2021/09/22 02:09:32;;;;;;;14.80;11.70;;;;;;;6.28;82.32;96740.72;6154970;23;20170;-79
2021/09/22 02:11:57;;;;;;;15.47;12.37;;;;;;;6.29;81.98;96733.81;6153130;23;20167;-79
2021/09/22 02:14:22;;;;;;;15.33;11.67;;;;;;;6.32;81.90;96726.69;6127945;23;20166;-80
2021/09/22 02:16:47;;;;;;;18.50;13.67;;;;;;;6.37;81.85;96737.59;6153014;23;20186;-79
2021/09/22 02:19:13;;;;;;;15.20;13.33;;;;;;;6.45;81.68;96737.13;6153097;23;20539;-79
2021/09/22 02:21:39;;;;;;;13.90;12.23;;;;;;;6.51;81.43;96727.22;6128642;23;20208;-78
2021/09/22 02:24:04;;;;;;;13.87;12.43;;;;;;;6.56;81.33;96726.13;6126539;23;20179;-80
2021/09/22 02:26:30;;;;;;;17.67;12.13;;;;;;;6.60;81.02;96727.59;6153339;23;20178;-79
2021/09/22 02:28:55;;;;;;;16.57;12.97;;;;;;;6.63;80.67;96724.84;6127801;23;20605;-80
2021/09/22 02:31:20;;;;;;;14.40;12.27;;;;;;;6.65;80.79;96723.00;6153019;23;20269;-80
2021/09/22 02:33:45;;;;;;;15.43;12.80;;;;;;;6.67;81.03;96724.53;6152171;23;20167;-80
2021/09/22 02:36:11;;;;;;;19.13;13.30;;;;;;;6.66;81.22;96728.06;6152983;23;20230;-80
2021/09/22 02:38:36;;;;;;;15.03;12.83;;;;;;;6.66;80.95;96716.91;6154519;23;20151;-80
2021/09/22 02:41:01;;;;;;;15.90;12.47;;;;;;;6.69;80.50;96721.88;6152987;23;20160;-80
2021/09/22 02:43:27;;;;;;;18.57;12.80;;;;;;;6.67;80.71;96732.28;6152751;23;20156;-79
2021/09/22 02:45:52;;;;;;;14.17;11.73;;;;;;;6.70;81.18;96723.53;6127812;23;20182;-80
2021/09/22 02:48:18;;;;;;;16.90;13.10;;;;;;;6.69;80.77;96717.53;6128165;23;20159;-80
2021/09/22 02:50:43;;;;;;;14.17;12.63;;;;;;;6.70;81.09;96708.84;6127817;23;20186;-80
2021/09/22 02:53:08;;;;;;;16.43;13.23;;;;;;;6.69;80.96;96714.94;6153198;23;20169;-80
2021/09/22 02:55:34;;;;;;;18.87;12.40;;;;;;;6.66;81.34;96709.16;6151813;23;20193;-80
2021/09/22 02:57:59;;;;;;;15.07;12.23;;;;;;;6.71;81.16;96714.84;6152762;23;20163;-80
2021/09/22 03:00:24;;;;;;;14.57;12.77;;;;;;;6.68;81.49;96707.31;6152618;23;20151;-80
2021/09/22 03:02:50;;;;;;;16.57;13.10;;;;;;;6.67;81.46;96703.06;6153199;23;20605;-80
2021/09/22 03:05:15;;;;;;;15.33;13.53;;;;;;;6.68;81.48;96709.88;6151536;23;20456;-80
2021/09/22 03:07:40;;;;;;;16.60;13.70;;;;;;;6.68;81.46;96709.88;6127865;23;20568;-80
2021/09/22 03:10:06;;;;;;;15.33;13.33;;;;;;;6.67;81.95;96705.66;6152653;23;20652;-80
2021/09/22 03:12:32;;;;;;;16.37;13.57;;;;;;;6.67;81.49;96706.47;6152833;23;20186;-80
2021/09/22 03:14:58;;;;;;;16.07;13.03;;;;;;;6.68;81.57;96705.56;6151613;23;20166;-80
2021/09/22 03:17:23;;;;;;;18.17;13.03;;;;;;;6.68;81.51;96700.38;6154347;23;20175;-80
2021/09/22 03:19:49;;;;;;;15.60;13.93;;;;;;;6.68;81.57;96704.72;6152933;23;20161;-80
2021/09/22 03:22:14;;;;;;;20.97;13.83;;;;;;;6.67;81.72;96709.06;6152715;23;20490;-79
2021/09/22 03:24:39;;;;;;;17.93;14.17;;;;;;;6.66;81.90;96712.56;6125157;23;20597;-80
2021/09/22 03:27:05;;;;;;;16.13;13.53;;;;;;;6.66;81.65;96706.59;6127663;23;20179;-80
2021/09/22 03:29:30;;;;;;;16.47;12.80;;;;;;;6.64;81.75;96700.69;6152668;23;20214;-80
2021/09/22 03:31:55;;;;;;;15.83;13.50;;;;;;;6.60;82.31;96712.13;6152494;23;20155;-80
2021/09/22 03:34:20;;;;;;;16.10;12.97;;;;;;;6.59;82.09;96706.13;6151974;23;20198;-80
2021/09/22 03:36:46;;;;;;;17.30;13.80;;;;;;;6.56;81.95;96706.31;6103422;23;20661;-80
2021/09/22 03:39:13;;;;;;;18.13;13.97;;;;;;;6.55;82.11;96703.84;6152739;23;20625;-80
2021/09/22 03:41:38;;;;;;;17.63;13.27;;;;;;;6.58;82.22;96708.81;6130422;23;20152;-79
2021/09/22 03:44:04;;;;;;;15.47;13.83;;;;;;;6.58;82.06;96711.38;6153940;23;20158;-80
2021/09/22 03:46:29;;;;;;;19.00;13.97;;;;;;;6.53;82.64;96717.63;6130165;23;20183;-79
2021/09/22 03:48:54;;;;;;;18.37;14.13;;;;;;;6.52;82.94;96716.00;6154317;23;20158;-81
2021/09/22 03:51:19;;;;;;;19.83;14.10;;;;;;;6.49;82.90;96715.34;6154143;23;20505;-82
2021/09/22 03:53:45;;;;;;;16.43;14.33;;;;;;;6.49;82.63;96718.78;6153569;23;20170;-79
2021/09/22 03:56:10;;;;;;;16.77;13.53;;;;;;;6.47;82.87;96723.19;6154327;23;20183;-79
2021/09/22 03:58:35;;;;;;;16.70;14.47;;;;;;;6.47;83.05;96725.78;6154456;23;20214;-81
2021/09/22 04:01:01;;;;;;;21.33;15.10;;;;;;;6.46;83.22;96718.13;6154540;23;20148;-79
2021/09/22 04:03:26;;;;;;;18.97;14.47;;;;;;;6.50;82.86;96728.16;6129723;23;20160;-83
2021/09/22 04:05:51;;;;;;;18.33;14.03;;;;;;;6.51;82.65;96729.81;6153966;23;20561;-78
2021/09/22 04:08:17;;;;;;;19.90;15.13;;;;;;;6.51;83.05;96723.81;6129838;23;20155;-81
2021/09/22 04:10:42;;;;;;;17.73;14.70;;;;;;;6.52;82.93;96728.88;6154254;23;20540;-81
2021/09/22 04:13:07;;;;;;;17.20;13.87;;;;;;;6.55;82.78;96729.66;6154731;23;20166;-81
2021/09/22 04:15:33;;;;;;;19.43;14.67;;;;;;;6.52;83.37;96731.47;6153365;23;20167;-80
2021/09/22 04:17:58;;;;;;;18.23;14.70;;;;;;;6.59;82.51;96738.84;6128883;23;20175;-80
2021/09/22 04:20:23;;;;;;;21.60;15.97;;;;;;;6.59;82.83;96736.25;6154375;23;20159;-83
2021/09/22 04:22:49;;;;;;;19.40;14.83;;;;;;;6.58;83.14;96745.75;6129244;23;20166;-84
2021/09/22 04:25:14;;;;;;;17.10;14.17;;;;;;;6.59;82.53;96742.25;6153159;23;20492;-83
2021/09/22 04:27:40;;;;;;;19.23;15.70;;;;;;;6.59;83.27;96738.84;6129204;23;20187;-83
2021/09/22 04:30:07;;;;;;;20.20;14.93;;;;;;;6.66;82.63;96737.56;6154180;23;20238;-83
2021/09/22 04:32:32;;;;;;;17.87;14.73;;;;;;;6.73;82.12;96744.00;6129167;23;20178;-83
2021/09/22 04:34:57;;;;;;;20.30;14.83;;;;;;;6.76;81.69;96738.63;6128341;23;20166;-83
2021/09/22 04:37:24;;;;;;;19.20;15.27;;;;;;;6.72;81.73;96738.00;6153489;23;20167;-84
2021/09/22 04:39:49;;;;;;;21.53;14.73;;;;;;;6.74;81.70;96740.50;6128614;23;20170;-85
2021/09/22 04:42:14;;;;;;;19.63;15.73;;;;;;;6.74;81.58;96735.34;6128785;23;20598;-83
2021/09/22 04:44:40;;;;;;;19.87;15.73;;;;;;;6.73;81.96;96733.69;6128923;23;20166;-83
2021/09/22 04:47:05;;;;;;;19.97;16.27;;;;;;;6.61;82.56;96727.50;6153626;23;20179;-83
2021/09/22 04:49:31;;;;;;;21.53;16.70;;;;;;;6.65;82.31;96730.75;6104611;23;20167;-83
2021/09/22 04:51:56;;;;;;;20.37;15.63;;;;;;;6.60;82.81;96732.75;6128835;23;20668;-84
2021/09/22 04:54:21;;;;;;;21.27;15.33;;;;;;;6.59;82.38;96731.09;6152667;23;20166;-84
2021/09/22 04:56:47;;;;;;;20.70;16.10;;;;;;;6.60;82.49;96727.59;6153659;23;20175;-84
2021/09/22 04:59:12;;;;;;;20.53;15.93;;;;;;;6.59;82.76;96728.53;6129427;23;20167;-82
2021/09/22 05:01:39;;;;;;;22.30;16.33;;;;;;;6.64;82.93;96727.31;6129348;23;20155;-83
2021/09/22 05:04:05;;;;;;;21.93;16.00;;;;;;;6.67;82.99;96729.72;6152963;23;20159;-83
2021/09/22 05:06:30;;;;;;;19.30;15.90;;;;;;;6.68;82.97;96735.69;6129771;23;20699;-84
2021/09/22 05:08:56;;;;;;;21.67;16.57;;;;;;;6.68;82.90;96735.69;6130398;23;20191;-84
2021/09/22 05:11:22;;;;;;;19.23;16.10;;;;;;;6.69;83.18;96733.03;6154509;23;20259;-83
2021/09/22 05:13:47;;;;;;;22.37;17.10;;;;;;;6.70;83.17;96723.53;6155570;23;20151;-81
2021/09/22 05:16:12;;;;;;;27.33;17.37;;;;;;;6.74;83.18;96736.16;6157088;23;20625;-82
2021/09/22 05:18:38;;;;;;;23.33;16.93;;;;;;;6.75;83.12;96737.81;6155742;23;20162;-82
2021/09/22 05:21:03;;;;;;;21.87;16.93;;;;;;;6.79;83.10;96739.25;6131515;23;20151;-82
2021/09/22 05:23:28;;;;;;;21.47;16.63;;;;;;;6.81;83.16;96740.03;6134658;23;20210;-82
2021/09/22 05:25:53;;;;;;;23.90;18.17;;;;;;;6.85;83.00;96742.41;6130882;23;20183;-82
2021/09/22 05:28:19;;;;;;;22.20;17.43;;;;;;;6.92;82.61;96744.50;6131544;23;20833;-85
2021/09/22 05:30:44;;;;;;;24.70;17.47;;;;;;;6.97;82.55;96745.03;6159183;23;20183;-84
2021/09/22 05:33:10;;;;;;;25.17;18.10;;;;;;;7.04;82.58;96738.56;6160817;23;20162;-82
2021/09/22 05:35:37;;;;;;;25.87;18.57;;;;;;;7.12;82.31;96750.16;6159476;23;20175;-84
2021/09/22 05:38:03;;;;;;;23.70;17.77;;;;;;;7.20;82.11;96743.59;6160074;23;20544;-82
2021/09/22 05:40:28;;;;;;;24.60;17.43;;;;;;;7.29;81.76;96742.19;6135729;23;20446;-82
2021/09/22 05:42:54;;;;;;;21.37;16.90;;;;;;;7.35;81.71;96752.97;6159120;23;20151;-82
2021/09/22 05:45:19;;;;;;;24.40;17.80;;;;;;;7.44;81.35;96756.72;6158215;23;20155;-83
2021/09/22 05:47:45;;;;;;;24.77;18.33;;;;;;;7.52;81.58;96754.47;6159901;23;20163;-82
2021/09/22 05:50:10;;;;;;;22.20;17.53;;;;;;;7.59;81.09;96753.09;6162984;23;20182;-82
2021/09/22 05:52:35;;;;;;;22.03;17.17;;;;;;;7.72;80.86;96749.75;6158882;23;20162;-80
2021/09/22 05:55:01;;;;;;;21.30;17.63;;;;;;;7.81;80.76;96749.97;6161764;23;20226;-81
2021/09/22 05:57:26;;;;;;;23.17;17.27;;;;;;;7.93;80.40;96743.97;6161386;23;20179;-84
2021/09/22 05:59:52;;;;;;;21.37;17.07;;;;;;;7.98;80.23;96748.84;6136141;23;20163;-80
2021/09/22 06:02:17;;;;;;;23.40;18.00;;;;;;;8.11;80.12;96749.66;6166511;23;20242;-80
2021/09/22 06:04:43;;;;;;;25.13;17.73;;;;;;;8.24;79.77;96750.50;6143574;23;20162;-80
2021/09/22 06:07:08;;;;;;;23.97;17.97;;;;;;;8.36;79.51;96753.22;6136706;23;20179;-81
2021/09/22 06:09:33;;;;;;;23.90;18.20;;;;;;;8.49;79.23;96751.47;6135218;23;20165;-82
2021/09/22 06:11:59;;;;;;;23.20;17.97;;;;;;;8.55;78.85;96745.84;6159850;23;20139;-81
2021/09/22 06:14:24;;;;;;;26.03;19.10;;;;;;;8.73;78.73;96754.09;6159103;23;20163;-82
2021/09/22 06:16:50;;;;;;;26.67;19.37;;;;;;;8.86;78.62;96754.91;6160671;23;20171;-81
2021/09/22 06:19:15;;;;;;;24.13;18.93;;;;;;;9.02;78.50;96749.47;6162641;23;20622;-81
2021/09/22 06:21:40;;;;;;;26.23;19.13;;;;;;;9.17;77.78;96750.97;6160678;23;20154;-80
2021/09/22 06:24:06;;;;;;;22.90;18.33;;;;;;;9.29;77.15;96754.47;6161725;23;20187;-81
2021/09/22 06:26:31;;;;;;;25.13;18.40;;;;;;;9.45;77.02;96752.41;6160499;23;20179;-82
2021/09/22 06:28:57;;;;;;;24.47;17.40;;;;;;;9.51;76.92;96746.78;6162610;23;20162;-80
2021/09/22 06:31:22;;;;;;;22.53;17.10;;;;;;;9.59;76.72;96759.19;6136902;23;20175;-81
2021/09/22 06:33:48;;;;;;;21.53;15.50;;;;;;;9.79;76.14;96755.13;6136760;23;20245;-82
2021/09/22 06:36:13;;;;;;;22.30;17.47;;;;;;;9.79;75.45;96755.94;6136361;23;20174;-80
2021/09/22 06:38:39;;;;;;;22.90;20.33;;;;;;;9.91;74.93;96764.59;6129186;23;20381;-81
2021/09/22 06:41:04;;;;;;;20.37;16.83;;;;;;;10.07;74.91;96766.88;6154946;23;20158;-79
2021/09/22 06:43:30;;;;;;;21.20;16.47;;;;;;;10.04;74.98;96754.94;6154413;23;20191;-80
2021/09/22 06:45:55;;;;;;;19.80;15.23;;;;;;;10.13;74.31;96753.44;6153083;23;20662;-78
2021/09/22 06:48:20;;;;;;;17.93;14.60;;;;;;;10.31;73.72;96756.44;6154937;23;20152;-78
2021/09/22 06:50:46;;;;;;;17.37;14.57;;;;;;;10.32;73.42;96761.50;6154187;23;20613;-77
2021/09/22 06:53:12;;;;;;;18.90;16.90;;;;;;;10.53;72.87;96772.06;6152136;23;20532;-77
2021/09/22 06:55:38;;;;;;;17.17;15.30;;;;;;;10.65;71.68;96772.88;6153579;23;20218;-80
2021/09/22 06:58:03;;;;;;;18.80;14.80;;;;;;;10.65;71.23;96772.88;6154181;23;20218;-80
2021/09/22 07:00:28;;;;;;;18.00;13.70;;;;;;;10.65;70.30;96775.47;6161926;23;20162;-81
2021/09/22 07:02:54;;;;;;;17.77;13.80;;;;;;;10.76;69.75;96776.28;6179919;23;20163;-83
2021/09/22 07:05:19;;;;;;;19.07;14.33;;;;;;;10.79;69.55;96772.66;6143005;23;20558;-81
2021/09/22 07:07:47;;;;;;;15.43;12.40;;;;;;;10.85;68.58;96782.56;6137108;23;20169;-82
2021/09/22 07:10:16;;;;;;;16.43;13.10;;;;;;;10.96;67.80;96782.56;6135616;23;20195;-81
2021/09/22 07:12:42;;;;;;;15.50;11.23;;;;;;;11.11;66.06;96782.28;6157603;23;20201;-80
2021/09/22 07:15:08;;;;;;;15.10;12.07;;;;;;;11.07;66.93;96787.75;6134448;23;20155;-81
2021/09/22 07:17:33;;;;;;;17.10;12.67;;;;;;;11.22;66.06;96796.13;6135463;23;20167;-81
2021/09/22 07:19:59;;;;;;;15.40;12.77;;;;;;;11.20;64.55;96794.56;6137075;23;20381;-83
2021/09/22 07:22:24;;;;;;;13.67;11.50;;;;;;;11.17;65.20;96794.81;6134279;23;20230;-82
2021/09/22 07:24:49;;;;;;;13.13;11.63;;;;;;;11.37;63.50;96808.84;6134667;23;20163;-83
2021/09/22 07:27:15;;;;;;;12.70;11.33;;;;;;;11.36;63.93;96800.22;6136037;23;20183;-83
2021/09/22 07:29:41;;;;;;;12.87;11.53;;;;;;;11.46;63.28;96800.31;6156775;23;20800;-83
2021/09/22 07:32:07;;;;;;;13.07;11.00;;;;;;;11.54;62.64;96805.72;6132384;23;20233;-82
2021/09/22 07:34:33;;;;;;;13.03;11.10;;;;;;;11.77;60.95;96809.09;6131451;23;20218;-82
2021/09/22 07:37:00;;;;;;;13.83;10.47;;;;;;;11.85;60.80;96798.91;6157159;23;20565;-83
2021/09/22 07:39:26;;;;;;;12.13;10.83;;;;;;;11.91;60.87;96803.59;6156259;23;20242;-82
2021/09/22 07:41:51;;;;;;;12.20;11.00;;;;;;;11.82;60.38;96807.78;6157223;23;20601;-82
2021/09/22 07:44:16;;;;;;;13.13;10.57;;;;;;;11.89;59.28;96808.09;6131579;23;20163;-82
2021/09/22 07:46:42;;;;;;;11.37;10.20;;;;;;;12.02;57.56;96803.56;6156037;23;20229;-77
2021/09/22 07:49:07;;;;;;;13.73;10.03;;;;;;;12.09;59.85;96794.28;6128382;23;20206;-82
2021/09/22 07:51:32;;;;;;;11.23;9.87;;;;;;;12.19;59.19;96804.75;6153451;23;20179;-82
2021/09/22 07:53:58;;;;;;;12.73;10.60;;;;;;;12.14;59.47;96794.75;6128163;23;20182;-82
2021/09/22 07:56:23;;;;;;;10.70;9.60;;;;;;;12.32;59.29;96796.78;6128221;23;20199;-82
2021/09/22 07:58:48;;;;;;;12.03;9.20;;;;;;;12.44;58.59;96804.38;6153359;23;20676;-82
2021/09/22 08:01:14;;;;;;;11.27;10.17;;;;;;;12.23;58.31;96800.13;6153895;23;20148;-83
2021/09/22 08:03:40;;;;;;;11.10;9.90;;;;;;;12.17;57.25;96799.69;6128762;23;20218;-83
2021/09/22 08:06:06;;;;;;;11.10;9.50;;;;;;;12.33;56.46;96798.41;6129307;23;20182;-82
2021/09/22 08:08:31;;;;;;;11.10;10.00;;;;;;;12.09;57.92;96799.47;6153968;23;20161;-82
2021/09/22 08:10:56;;;;;;;10.20;9.20;;;;;;;12.05;58.15;96803.31;6153753;23;20180;-85
2021/09/22 08:13:22;;;;;;;13.10;10.20;;;;;;;11.96;58.32;96806.66;6128030;23;20502;-82
2021/09/22 08:15:48;;;;;;;10.00;9.00;;;;;;;12.10;58.88;96803.78;6128282;23;20227;-81
2021/09/22 08:18:13;;;;;;;11.13;10.00;;;;;;;12.13;60.34;96808.72;6128784;23;20493;-80
2021/09/22 08:20:39;;;;;;;10.43;9.27;;;;;;;12.06;59.44;96807.56;6128280;23;20165;-81
2021/09/22 08:23:05;;;;;;;14.57;10.23;;;;;;;12.08;58.75;96816.06;6129039;23;20164;-82
2021/09/22 08:25:30;;;;;;;12.53;9.57;;;;;;;12.08;60.43;96805.66;6128126;23;20183;-81
2021/09/22 08:27:55;;;;;;;12.20;10.50;;;;;;;12.22;60.26;96814.13;6136021;23;20977;-82
2021/09/22 08:30:20;;;;;;;11.63;10.43;;;;;;;12.20;59.89;96819.47;6153914;23;20194;-81
2021/09/22 08:32:46;;;;;;;12.60;10.40;;;;;;;12.22;59.47;96820.16;6138762;23;20413;-79
2021/09/22 08:35:12;;;;;;;10.27;9.27;;;;;;;12.41;59.89;96824.66;6155252;23;20159;-81
2021/09/22 08:37:38;;;;;;;11.03;10.00;;;;;;;12.60;57.19;96827.38;6130707;23;20202;-81
2021/09/22 08:40:05;;;;;;;10.80;9.70;;;;;;;12.66;57.60;96834.69;6154755;23;20152;-81
2021/09/22 08:42:30;;;;;;;11.20;10.10;;;;;;;12.65;56.16;96830.44;6153493;23;20187;-81
2021/09/22 08:44:56;;;;;;;11.40;9.57;;;;;;;12.87;56.99;96833.81;6130423;23;20692;-81
2021/09/22 08:47:21;;;;;;;11.33;10.23;;;;;;;12.99;54.83;96824.97;6157941;23;20178;-80
2021/09/22 08:49:49;;;;;;;10.63;9.53;;;;;;;13.02;55.27;96824.69;6157437;23;20286;-82
2021/09/22 08:52:14;;;;;;;10.27;9.03;;;;;;;12.97;55.16;96827.69;6158306;23;20684;-82
2021/09/22 08:54:41;;;;;;;14.30;9.00;;;;;;;13.06;55.15;96828.66;6156604;23;20167;-82
2021/09/22 08:57:06;;;;;;;14.60;9.90;;;;;;;13.21;55.93;96826.56;6133035;23;20281;-82
2021/09/22 08:59:32;;;;;;;12.07;9.87;;;;;;;13.22;55.00;96828.22;6156429;23;20605;-80
2021/09/22 09:02:08;;;;;;;13.23;8.97;;;;;;;13.31;54.21;96828.25;6158000;23;20155;-81
2021/09/22 09:04:33;;;;;;;11.70;10.07;;;;;;;13.37;54.42;96829.50;6157606;23;20213;-82
2021/09/22 09:06:59;;;;;;;10.63;9.63;;;;;;;13.22;55.73;96826.44;6157036;23;20183;-82
2021/09/22 09:09:38;;;;;;;10.70;8.63;;;;;;;13.43;55.77;96828.13;6157123;23;20162;-82
2021/09/22 09:12:18;;;;;;;9.37;8.37;;;;;;;13.36;54.58;96834.84;6156978;23;20146;-83
2021/09/22 09:14:55;;;;;;;10.20;8.30;;;;;;;13.36;54.83;96832.25;6156629;23;20139;-83
2021/09/22 09:17:42;;;;;;;8.97;7.53;;;;;;;13.39;55.28;96827.56;6155640;23;20182;-83
2021/09/22 09:20:20;;;;;;;9.20;7.60;;;;;;;13.63;54.93;96829.84;6157713;23;20139;-83
2021/09/22 09:22:54;;;;;;;10.03;8.43;;;;;;;13.66;56.56;96826.13;6158481;23;20226;-82
2021/09/22 09:25:26;;;;;;;9.17;7.60;;;;;;;13.80;54.11;96823.94;6156295;23;20236;-80
2021/09/22 09:27:52;;;;;;;11.97;8.40;;;;;;;13.94;53.10;96827.91;6131373;23;20152;-81
2021/09/22 09:30:23;;;;;;;8.70;7.77;;;;;;;13.72;52.64;96821.19;6156218;23;20171;-80
2021/09/22 09:32:49;;;;;;;8.80;7.90;;;;;;;13.66;54.11;96816.50;6156674;23;20488;-78
2021/09/22 09:35:17;;;;;;;10.97;8.23;;;;;;;13.62;53.92;96830.78;6155159;23;20623;-79
2021/09/22 09:37:56;;;;;;;9.20;7.67;;;;;;;13.46;55.29;96825.25;6131978;23;20226;-79
2021/09/22 09:40:27;;;;;;;9.47;8.50;;;;;;;13.69;54.38;96818.81;6132419;23;20154;-79
2021/09/22 09:43:07;;;;;;;9.50;8.53;;;;;;;13.66;55.70;96819.09;6131678;23;20159;-80
2021/09/22 09:45:41;;;;;;;11.90;8.30;;;;;;;14.01;54.74;96815.16;6158406;23;20253;-80
2021/09/22 09:48:13;;;;;;;8.50;6.83;;;;;;;13.99;53.21;96820.50;6133235;23;20175;-80
2021/09/22 09:50:47;;;;;;;7.87;6.73;;;;;;;14.05;52.86;96811.31;6133495;23;20182;-79
2021/09/22 09:53:27;;;;;;;7.00;6.30;;;;;;;13.85;53.86;96813.91;6158637;23;20139;-79
2021/09/22 09:55:53;;;;;;;8.33;6.37;;;;;;;13.97;53.50;96811.19;6157263;23;20183;-80
2021/09/22 09:58:22;;;;;;;9.07;7.37;;;;;;;14.05;53.42;96816.53;6159733;23;20594;-79
2021/09/22 10:00:49;;;;;;;9.57;6.53;;;;;;;14.03;52.84;96816.66;6158538;23;20737;-78
2021/09/22 10:03:19;;;;;;;10.07;5.63;;;;;;;13.96;53.46;96812.09;6159219;23;20492;-80
2021/09/22 10:05:46;;;;;;;8.03;5.83;;;;;;;13.99;53.49;96809.25;6138967;23;20176;-80
2021/09/22 10:08:13;;;;;;;6.33;5.30;;;;;;;13.99;52.63;96804.84;6141161;23;20155;-79
2021/09/22 10:10:40;;;;;;;5.67;5.13;;;;;;;14.23;51.91;96795.75;6164220;23;20575;-79
2021/09/22 10:13:06;;;;;;;5.10;4.60;;;;;;;14.34;51.70;96790.38;6133893;23;20218;-82
2021/09/22 10:15:33;;;;;;;6.00;5.00;;;;;;;14.21;51.31;96782.81;6138050;23;20309;-81
2021/09/22 10:17:59;;;;;;;5.87;4.70;;;;;;;14.41;51.10;96781.84;6161030;23;20178;-82
2021/09/22 10:20:24;;;;;;;6.40;4.90;;;;;;;14.48;51.56;96779.47;6157002;23;20584;-82
2021/09/22 10:22:50;;;;;;;5.07;4.57;;;;;;;14.44;51.23;96776.31;6132759;23;20210;-82
2021/09/22 10:25:18;;;;;;;7.90;4.97;;;;;;;14.45;50.67;96779.78;6155905;23;20175;-82
2021/09/22 10:27:48;;;;;;;5.07;4.67;;;;;;;14.32;52.78;96779.25;6156705;23;20159;-83
2021/09/22 10:30:15;;;;;;;5.33;4.73;;;;;;;14.48;52.50;96773.44;6142388;23;20179;-82
2021/09/22 10:32:46;;;;;;;7.30;5.23;;;;;;;14.53;52.22;96771.22;6181099;23;20171;-80
2021/09/22 10:35:26;;;;;;;7.50;5.27;;;;;;;14.53;52.37;96766.00;6132087;23;20226;-81
2021/09/22 10:37:56;;;;;;;6.37;4.87;;;;;;;14.62;52.66;96773.00;6156156;23;20226;-80
2021/09/22 10:41:13;;;;;;;6.73;5.33;;;;;;;14.67;51.97;96762.94;6161085;23;20143;-79
2021/09/22 10:43:44;;;;;;;6.07;5.10;;;;;;;14.84;51.61;96761.34;6158821;23;20171;-79
2021/09/22 10:46:13;;;;;;;6.40;5.77;;;;;;;14.92;51.00;96761.44;6134851;23;20183;-79
2021/09/22 10:48:50;;;;;;;6.67;4.97;;;;;;;14.86;52.07;96762.03;6136837;23;20171;-79
2021/09/22 10:51:36;;;;;;;6.90;5.40;;;;;;;14.89;51.06;96770.41;6163085;23;20643;-80
2021/09/22 10:54:07;;;;;;;6.30;5.47;;;;;;;14.76;51.49;96775.16;6135425;23;20159;-80
2021/09/22 10:56:33;;;;;;;5.40;4.77;;;;;;;14.70;51.71;96767.88;6161167;23;20205;-79
2021/09/22 10:59:02;;;;;;;7.60;4.40;;;;;;;14.69;51.60;96768.84;6157584;23;20179;-78
2021/09/22 11:01:40;;;;;;;4.47;4.07;;;;;;;14.77;51.19;96758.50;6135671;23;20181;-80
2021/09/22 11:04:09;;;;;;;5.87;4.43;;;;;;;14.85;51.71;96758.59;6163163;23;20211;-79
2021/09/22 11:06:44;;;;;;;6.20;4.63;;;;;;;15.17;52.82;96759.94;6134930;23;20179;-78
2021/09/22 11:09:23;;;;;;;4.73;4.27;;;;;;;15.10;50.78;96761.50;6160555;23;20174;-79
2021/09/22 11:11:58;;;;;;;5.67;4.67;;;;;;;15.20;51.14;96757.88;6157881;23;20500;-80
2021/09/22 11:14:27;;;;;;;5.53;4.50;;;;;;;15.07;49.59;96754.75;6152803;23;20216;-83
2021/09/22 11:16:53;;;;;;;5.50;4.00;;;;;;;15.09;50.66;96754.59;6154473;23;20183;-81
2021/09/22 11:19:20;;;;;;;5.47;4.67;;;;;;;15.02;51.27;96751.78;6128822;23;20223;-80
2021/09/22 11:21:47;;;;;;;5.07;3.73;;;;;;;15.08;49.99;96748.56;6153236;23;20151;-79
2021/09/22 11:24:15;;;;;;;4.43;3.97;;;;;;;15.22;49.53;96742.84;6127364;23;20158;-79